sensor_id;sensor_type;location;lat;lon;timestamp;P1;durP1;ratioP1;P2;durP2;ratioP2
70505;SDS011;58032;49.820;6.274;2023-05-07T00:00:18;3.65;;;1.42;;
70505;SDS011;58032;49.820;6.274;2023-05-07T00:02:46;3.70;;;1.90;;
70505;SDS011;58032;49.820;6.274;2023-05-07T00:05:13;2.85;;;1.33;;
70505;SDS011;58032;49.820;6.274;2023-05-07T00:07:40;3.90;;;1.60;;
70505;SDS011;58032;49.820;6.274;2023-05-07T00:10:07;3.15;;;1.42;;
70505;SDS011;58032;49.820;6.274;2023-05-07T00:12:34;3.47;;;1.38;;
70505;SDS011;58032;49.820;6.274;2023-05-07T00:15:02;3.77;;;1.70;;
70505;SDS011;58032;49.820;6.274;2023-05-07T00:17:29;3.80;;;1.33;;
70505;SDS011;58032;49.820;6.274;2023-05-07T00:19:56;3.30;;;1.30;;
70505;SDS011;58032;49.820;6.274;2023-05-07T00:22:23;3.33;;;1.20;;
70505;SDS011;58032;49.820;6.274;2023-05-07T00:24:50;3.33;;;1.30;;
70505;SDS011;58032;49.820;6.274;2023-05-07T00:27:17;4.03;;;1.60;;
70505;SDS011;58032;49.820;6.274;2023-05-07T00:29:44;3.80;;;1.70;;
70505;SDS011;58032;49.820;6.274;2023-05-07T00:32:11;3.75;;;1.63;;
70505;SDS011;58032;49.820;6.274;2023-05-07T00:34:37;4.47;;;1.55;;
70505;SDS011;58032;49.820;6.274;2023-05-07T00:37:06;4.90;;;1.80;;
70505;SDS011;58032;49.820;6.274;2023-05-07T00:39:34;4.10;;;1.77;;
70505;SDS011;58032;49.820;6.274;2023-05-07T00:42:01;3.17;;;1.33;;
70505;SDS011;58032;49.820;6.274;2023-05-07T00:44:29;4.75;;;1.80;;
70505;SDS011;58032;49.820;6.274;2023-05-07T00:46:56;4.28;;;1.73;;
70505;SDS011;58032;49.820;6.274;2023-05-07T00:49:30;3.65;;;1.52;;
70505;SDS011;58032;49.820;6.274;2023-05-07T00:52:09;5.27;;;1.93;;
70505;SDS011;58032;49.820;6.274;2023-05-07T00:54:40;3.58;;;1.63;;
70505;SDS011;58032;49.820;6.274;2023-05-07T00:57:08;4.45;;;1.90;;
70505;SDS011;58032;49.820;6.274;2023-05-07T00:59:37;5.30;;;2.13;;
70505;SDS011;58032;49.820;6.274;2023-05-07T01:02:04;3.65;;;1.58;;
70505;SDS011;58032;49.820;6.274;2023-05-07T01:04:31;7.27;;;2.00;;
70505;SDS011;58032;49.820;6.274;2023-05-07T01:06:58;3.78;;;1.98;;
70505;SDS011;58032;49.820;6.274;2023-05-07T01:09:27;3.25;;;1.80;;
70505;SDS011;58032;49.820;6.274;2023-05-07T01:11:55;4.18;;;2.08;;
70505;SDS011;58032;49.820;6.274;2023-05-07T01:14:24;4.18;;;2.25;;
70505;SDS011;58032;49.820;6.274;2023-05-07T01:16:52;4.80;;;2.17;;
70505;SDS011;58032;49.820;6.274;2023-05-07T01:19:21;3.58;;;1.85;;
70505;SDS011;58032;49.820;6.274;2023-05-07T01:21:48;4.03;;;2.45;;
70505;SDS011;58032;49.820;6.274;2023-05-07T01:24:18;5.05;;;1.80;;
70505;SDS011;58032;49.820;6.274;2023-05-07T01:26:45;4.95;;;1.88;;
70505;SDS011;58032;49.820;6.274;2023-05-07T01:29:14;4.33;;;1.50;;
70505;SDS011;58032;49.820;6.274;2023-05-07T01:31:42;5.65;;;1.52;;
70505;SDS011;58032;49.820;6.274;2023-05-07T01:34:09;3.92;;;1.63;;
70505;SDS011;58032;49.820;6.274;2023-05-07T01:36:39;4.90;;;2.00;;
70505;SDS011;58032;49.820;6.274;2023-05-07T01:39:09;3.55;;;1.80;;
70505;SDS011;58032;49.820;6.274;2023-05-07T01:41:37;3.93;;;1.80;;
70505;SDS011;58032;49.820;6.274;2023-05-07T01:44:04;4.03;;;1.42;;
70505;SDS011;58032;49.820;6.274;2023-05-07T01:46:32;4.85;;;1.95;;
70505;SDS011;58032;49.820;6.274;2023-05-07T01:49:00;3.65;;;1.70;;
70505;SDS011;58032;49.820;6.274;2023-05-07T01:51:27;4.63;;;1.52;;
70505;SDS011;58032;49.820;6.274;2023-05-07T01:53:54;3.10;;;1.60;;
70505;SDS011;58032;49.820;6.274;2023-05-07T01:56:22;4.70;;;1.63;;
70505;SDS011;58032;49.820;6.274;2023-05-07T01:58:49;4.55;;;1.75;;
70505;SDS011;58032;49.820;6.274;2023-05-07T02:01:18;3.67;;;1.70;;
70505;SDS011;58032;49.820;6.274;2023-05-07T02:03:45;4.63;;;1.70;;
70505;SDS011;58032;49.820;6.274;2023-05-07T02:06:19;5.00;;;1.30;;
70505;SDS011;58032;49.820;6.274;2023-05-07T02:08:47;5.00;;;1.75;;
70505;SDS011;58032;49.820;6.274;2023-05-07T02:11:15;4.00;;;1.75;;
70505;SDS011;58032;49.820;6.274;2023-05-07T02:13:42;5.22;;;1.80;;
70505;SDS011;58032;49.820;6.274;2023-05-07T02:16:09;3.85;;;1.63;;
70505;SDS011;58032;49.820;6.274;2023-05-07T02:18:37;4.73;;;2.00;;
70505;SDS011;58032;49.820;6.274;2023-05-07T02:21:04;4.68;;;1.95;;
70505;SDS011;58032;49.820;6.274;2023-05-07T02:23:31;5.57;;;1.90;;
70505;SDS011;58032;49.820;6.274;2023-05-07T02:25:59;5.15;;;1.40;;
70505;SDS011;58032;49.820;6.274;2023-05-07T02:28:26;3.78;;;1.60;;
70505;SDS011;58032;49.820;6.274;2023-05-07T02:31:00;6.03;;;1.37;;
70505;SDS011;58032;49.820;6.274;2023-05-07T02:33:28;4.88;;;1.42;;
70505;SDS011;58032;49.820;6.274;2023-05-07T02:35:55;4.10;;;1.70;;
70505;SDS011;58032;49.820;6.274;2023-05-07T02:38:22;5.25;;;1.85;;
70505;SDS011;58032;49.820;6.274;2023-05-07T02:40:49;3.22;;;1.55;;
70505;SDS011;58032;49.820;6.274;2023-05-07T02:43:16;4.20;;;1.80;;
70505;SDS011;58032;49.820;6.274;2023-05-07T02:45:46;3.55;;;2.47;;
70505;SDS011;58032;49.820;6.274;2023-05-07T02:48:14;4.40;;;1.55;;
70505;SDS011;58032;49.820;6.274;2023-05-07T02:50:41;3.97;;;1.48;;
70505;SDS011;58032;49.820;6.274;2023-05-07T02:53:09;3.67;;;1.60;;
70505;SDS011;58032;49.820;6.274;2023-05-07T02:55:36;3.50;;;1.20;;
70505;SDS011;58032;49.820;6.274;2023-05-07T02:58:03;3.75;;;1.05;;
70505;SDS011;58032;49.820;6.274;2023-05-07T03:00:32;3.20;;;1.33;;
70505;SDS011;58032;49.820;6.274;2023-05-07T03:03:19;2.97;;;1.23;;
70505;SDS011;58032;49.820;6.274;2023-05-07T03:05:46;3.97;;;1.35;;
70505;SDS011;58032;49.820;6.274;2023-05-07T03:08:13;3.80;;;1.60;;
70505;SDS011;58032;49.820;6.274;2023-05-07T03:10:40;4.40;;;1.48;;
70505;SDS011;58032;49.820;6.274;2023-05-07T03:13:07;4.32;;;3.33;;
70505;SDS011;58032;49.820;6.274;2023-05-07T03:15:34;4.30;;;1.92;;
70505;SDS011;58032;49.820;6.274;2023-05-07T03:18:01;3.38;;;1.70;;
70505;SDS011;58032;49.820;6.274;2023-05-07T03:20:28;3.20;;;1.33;;
70505;SDS011;58032;49.820;6.274;2023-05-07T03:22:55;3.90;;;1.60;;
70505;SDS011;58032;49.820;6.274;2023-05-07T03:25:22;3.63;;;1.63;;
70505;SDS011;58032;49.820;6.274;2023-05-07T03:27:49;3.65;;;1.50;;
70505;SDS011;58032;49.820;6.274;2023-05-07T03:30:20;3.25;;;1.40;;
70505;SDS011;58032;49.820;6.274;2023-05-07T03:32:47;2.87;;;1.30;;
70505;SDS011;58032;49.820;6.274;2023-05-07T03:35:14;4.30;;;1.60;;
70505;SDS011;58032;49.820;6.274;2023-05-07T03:37:41;4.82;;;1.70;;
70505;SDS011;58032;49.820;6.274;2023-05-07T03:40:10;4.18;;;1.40;;
70505;SDS011;58032;49.820;6.274;2023-05-07T03:42:48;4.60;;;1.40;;
70505;SDS011;58032;49.820;6.274;2023-05-07T03:45:17;4.23;;;2.40;;
70505;SDS011;58032;49.820;6.274;2023-05-07T03:47:50;5.03;;;2.10;;
70505;SDS011;58032;49.820;6.274;2023-05-07T03:50:19;3.10;;;1.67;;
70505;SDS011;58032;49.820;6.274;2023-05-07T03:52:46;3.92;;;1.40;;
70505;SDS011;58032;49.820;6.274;2023-05-07T03:55:16;4.47;;;1.58;;
70505;SDS011;58032;49.820;6.274;2023-05-07T03:57:48;7.90;;;1.07;;
70505;SDS011;58032;49.820;6.274;2023-05-07T04:00:15;5.10;;;1.25;;
70505;SDS011;58032;49.820;6.274;2023-05-07T04:02:48;4.00;;;1.35;;
70505;SDS011;58032;49.820;6.274;2023-05-07T04:05:22;2.67;;;1.10;;
70505;SDS011;58032;49.820;6.274;2023-05-07T04:07:54;4.72;;;1.15;;
70505;SDS011;58032;49.820;6.274;2023-05-07T04:10:26;3.87;;;1.40;;
70505;SDS011;58032;49.820;6.274;2023-05-07T04:12:56;3.25;;;1.20;;
70505;SDS011;58032;49.820;6.274;2023-05-07T04:15:25;2.85;;;1.42;;
70505;SDS011;58032;49.820;6.274;2023-05-07T04:17:52;4.22;;;1.30;;
70505;SDS011;58032;49.820;6.274;2023-05-07T04:20:22;3.25;;;1.27;;
70505;SDS011;58032;49.820;6.274;2023-05-07T04:22:56;3.23;;;1.17;;
70505;SDS011;58032;49.820;6.274;2023-05-07T04:25:23;2.83;;;0.95;;
70505;SDS011;58032;49.820;6.274;2023-05-07T04:27:57;3.70;;;1.30;;
70505;SDS011;58032;49.820;6.274;2023-05-07T04:30:26;5.72;;;0.95;;
70505;SDS011;58032;49.820;6.274;2023-05-07T04:32:53;2.85;;;1.20;;
70505;SDS011;58032;49.820;6.274;2023-05-07T04:35:21;4.20;;;1.20;;
70505;SDS011;58032;49.820;6.274;2023-05-07T04:37:48;3.28;;;1.55;;
70505;SDS011;58032;49.820;6.274;2023-05-07T04:40:16;2.90;;;1.27;;
70505;SDS011;58032;49.820;6.274;2023-05-07T04:42:43;6.53;;;1.70;;
70505;SDS011;58032;49.820;6.274;2023-05-07T04:45:11;3.10;;;1.45;;
70505;SDS011;58032;49.820;6.274;2023-05-07T04:47:40;4.77;;;2.07;;
70505;SDS011;58032;49.820;6.274;2023-05-07T04:50:07;4.90;;;1.92;;
70505;SDS011;58032;49.820;6.274;2023-05-07T04:52:35;3.70;;;1.70;;
70505;SDS011;58032;49.820;6.274;2023-05-07T04:55:03;4.93;;;1.65;;
70505;SDS011;58032;49.820;6.274;2023-05-07T04:57:35;5.78;;;1.92;;
70505;SDS011;58032;49.820;6.274;2023-05-07T05:00:03;3.40;;;1.70;;
70505;SDS011;58032;49.820;6.274;2023-05-07T05:02:32;3.25;;;1.80;;
70505;SDS011;58032;49.820;6.274;2023-05-07T05:04:59;3.72;;;2.13;;
70505;SDS011;58032;49.820;6.274;2023-05-07T05:07:26;4.43;;;2.22;;
70505;SDS011;58032;49.820;6.274;2023-05-07T05:09:53;4.63;;;2.50;;
70505;SDS011;58032;49.820;6.274;2023-05-07T05:12:20;4.00;;;2.60;;
70505;SDS011;58032;49.820;6.274;2023-05-07T05:14:48;6.63;;;2.88;;
70505;SDS011;58032;49.820;6.274;2023-05-07T05:17:15;3.58;;;2.15;;
70505;SDS011;58032;49.820;6.274;2023-05-07T05:19:42;4.55;;;1.80;;
70505;SDS011;58032;49.820;6.274;2023-05-07T05:22:09;3.65;;;1.50;;
70505;SDS011;58032;49.820;6.274;2023-05-07T05:24:36;2.97;;;1.30;;
70505;SDS011;58032;49.820;6.274;2023-05-07T05:27:02;3.67;;;1.58;;
70505;SDS011;58032;49.820;6.274;2023-05-07T05:29:30;3.95;;;1.52;;
70505;SDS011;58032;49.820;6.274;2023-05-07T05:31:58;3.90;;;1.83;;
70505;SDS011;58032;49.820;6.274;2023-05-07T05:34:26;5.50;;;1.90;;
70505;SDS011;58032;49.820;6.274;2023-05-07T05:36:54;3.40;;;1.37;;
70505;SDS011;58032;49.820;6.274;2023-05-07T05:39:21;3.33;;;1.40;;
70505;SDS011;58032;49.820;6.274;2023-05-07T05:41:49;3.05;;;1.40;;
70505;SDS011;58032;49.820;6.274;2023-05-07T05:44:17;4.07;;;1.55;;
70505;SDS011;58032;49.820;6.274;2023-05-07T05:46:44;3.75;;;1.77;;
70505;SDS011;58032;49.820;6.274;2023-05-07T05:49:11;4.07;;;1.80;;
70505;SDS011;58032;49.820;6.274;2023-05-07T05:51:38;2.97;;;1.30;;
70505;SDS011;58032;49.820;6.274;2023-05-07T05:54:05;4.15;;;1.95;;
70505;SDS011;58032;49.820;6.274;2023-05-07T05:56:32;3.95;;;1.70;;
70505;SDS011;58032;49.820;6.274;2023-05-07T05:58:59;4.10;;;1.70;;
70505;SDS011;58032;49.820;6.274;2023-05-07T06:01:27;4.43;;;1.83;;
70505;SDS011;58032;49.820;6.274;2023-05-07T06:03:56;4.25;;;2.10;;
70505;SDS011;58032;49.820;6.274;2023-05-07T06:06:23;3.92;;;1.73;;
70505;SDS011;58032;49.820;6.274;2023-05-07T06:08:49;3.67;;;1.80;;
70505;SDS011;58032;49.820;6.274;2023-05-07T06:11:21;3.28;;;2.10;;
70505;SDS011;58032;49.820;6.274;2023-05-07T06:13:48;3.20;;;1.60;;
70505;SDS011;58032;49.820;6.274;2023-05-07T06:16:15;3.58;;;1.90;;
70505;SDS011;58032;49.820;6.274;2023-05-07T06:18:43;4.50;;;1.85;;
70505;SDS011;58032;49.820;6.274;2023-05-07T06:21:13;3.90;;;1.80;;
70505;SDS011;58032;49.820;6.274;2023-05-07T06:23:41;3.38;;;1.98;;
70505;SDS011;58032;49.820;6.274;2023-05-07T06:26:09;5.10;;;2.10;;
70505;SDS011;58032;49.820;6.274;2023-05-07T06:28:39;6.25;;;2.10;;
70505;SDS011;58032;49.820;6.274;2023-05-07T06:31:10;4.10;;;1.65;;
70505;SDS011;58032;49.820;6.274;2023-05-07T06:33:54;4.38;;;1.75;;
70505;SDS011;58032;49.820;6.274;2023-05-07T06:36:25;4.90;;;1.90;;
70505;SDS011;58032;49.820;6.274;2023-05-07T06:38:56;4.83;;;2.17;;
70505;SDS011;58032;49.820;6.274;2023-05-07T06:41:23;5.60;;;1.98;;
70505;SDS011;58032;49.820;6.274;2023-05-07T06:43:50;3.05;;;1.70;;
70505;SDS011;58032;49.820;6.274;2023-05-07T06:46:35;3.63;;;1.90;;
70505;SDS011;58032;49.820;6.274;2023-05-07T06:49:03;3.47;;;1.75;;
70505;SDS011;58032;49.820;6.274;2023-05-07T06:51:30;3.33;;;1.83;;
70505;SDS011;58032;49.820;6.274;2023-05-07T06:54:01;4.95;;;1.88;;
70505;SDS011;58032;49.820;6.274;2023-05-07T06:56:28;5.28;;;2.03;;
70505;SDS011;58032;49.820;6.274;2023-05-07T06:58:56;4.10;;;2.00;;
70505;SDS011;58032;49.820;6.274;2023-05-07T07:01:23;5.13;;;2.20;;
70505;SDS011;58032;49.820;6.274;2023-05-07T07:03:50;3.10;;;1.77;;
70505;SDS011;58032;49.820;6.274;2023-05-07T07:06:19;3.75;;;1.92;;
70505;SDS011;58032;49.820;6.274;2023-05-07T07:08:46;5.55;;;2.60;;
70505;SDS011;58032;49.820;6.274;2023-05-07T07:11:15;7.63;;;2.50;;
70505;SDS011;58032;49.820;6.274;2023-05-07T07:13:42;4.97;;;1.80;;
70505;SDS011;58032;49.820;6.274;2023-05-07T07:16:09;4.33;;;1.80;;
70505;SDS011;58032;49.820;6.274;2023-05-07T07:18:37;3.38;;;1.92;;
70505;SDS011;58032;49.820;6.274;2023-05-07T07:21:09;3.85;;;1.88;;
70505;SDS011;58032;49.820;6.274;2023-05-07T07:23:36;5.47;;;2.17;;
70505;SDS011;58032;49.820;6.274;2023-05-07T07:26:03;3.80;;;1.70;;
70505;SDS011;58032;49.820;6.274;2023-05-07T07:28:30;3.37;;;1.50;;
70505;SDS011;58032;49.820;6.274;2023-05-07T07:30:56;3.38;;;1.70;;
70505;SDS011;58032;49.820;6.274;2023-05-07T07:33:23;3.92;;;2.10;;
70505;SDS011;58032;49.820;6.274;2023-05-07T07:35:50;3.83;;;1.88;;
70505;SDS011;58032;49.820;6.274;2023-05-07T07:38:17;10.68;;;2.40;;
70505;SDS011;58032;49.820;6.274;2023-05-07T07:40:44;4.47;;;2.10;;
70505;SDS011;58032;49.820;6.274;2023-05-07T07:43:12;4.60;;;1.95;;
70505;SDS011;58032;49.820;6.274;2023-05-07T07:45:39;4.90;;;2.20;;
70505;SDS011;58032;49.820;6.274;2023-05-07T07:48:06;3.60;;;1.77;;
70505;SDS011;58032;49.820;6.274;2023-05-07T07:50:36;3.75;;;1.85;;
70505;SDS011;58032;49.820;6.274;2023-05-07T07:53:09;3.97;;;1.97;;
70505;SDS011;58032;49.820;6.274;2023-05-07T07:55:40;3.40;;;1.63;;
70505;SDS011;58032;49.820;6.274;2023-05-07T07:58:09;4.70;;;2.20;;
70505;SDS011;58032;49.820;6.274;2023-05-07T08:00:36;4.78;;;1.98;;
70505;SDS011;58032;49.820;6.274;2023-05-07T08:03:03;5.30;;;2.45;;
70505;SDS011;58032;49.820;6.274;2023-05-07T08:05:35;3.80;;;2.20;;
70505;SDS011;58032;49.820;6.274;2023-05-07T08:08:04;4.57;;;2.28;;
70505;SDS011;58032;49.820;6.274;2023-05-07T08:10:32;4.18;;;2.40;;
70505;SDS011;58032;49.820;6.274;2023-05-07T08:13:10;4.03;;;2.10;;
70505;SDS011;58032;49.820;6.274;2023-05-07T08:15:39;5.38;;;2.50;;
70505;SDS011;58032;49.820;6.274;2023-05-07T08:18:06;5.17;;;2.20;;
70505;SDS011;58032;49.820;6.274;2023-05-07T08:20:33;4.75;;;2.30;;
70505;SDS011;58032;49.820;6.274;2023-05-07T08:23:07;5.47;;;2.10;;
70505;SDS011;58032;49.820;6.274;2023-05-07T08:25:34;5.13;;;2.22;;
70505;SDS011;58032;49.820;6.274;2023-05-07T08:28:01;5.20;;;2.58;;
70505;SDS011;58032;49.820;6.274;2023-05-07T08:30:30;4.50;;;2.40;;
70505;SDS011;58032;49.820;6.274;2023-05-07T08:32:57;4.18;;;2.42;;
70505;SDS011;58032;49.820;6.274;2023-05-07T08:35:24;3.40;;;2.00;;
70505;SDS011;58032;49.820;6.274;2023-05-07T08:37:52;4.85;;;1.67;;
70505;SDS011;58032;49.820;6.274;2023-05-07T08:40:20;5.78;;;2.42;;
70505;SDS011;58032;49.820;6.274;2023-05-07T08:42:52;4.27;;;2.07;;
70505;SDS011;58032;49.820;6.274;2023-05-07T08:45:20;4.13;;;1.90;;
70505;SDS011;58032;49.820;6.274;2023-05-07T08:47:51;3.08;;;1.77;;
70505;SDS011;58032;49.820;6.274;2023-05-07T08:50:23;3.45;;;2.00;;
70505;SDS011;58032;49.820;6.274;2023-05-07T08:52:51;3.45;;;1.90;;
70505;SDS011;58032;49.820;6.274;2023-05-07T08:55:19;4.00;;;1.90;;
70505;SDS011;58032;49.820;6.274;2023-05-07T08:57:47;5.05;;;1.90;;
70505;SDS011;58032;49.820;6.274;2023-05-07T09:00:16;3.85;;;2.00;;
70505;SDS011;58032;49.820;6.274;2023-05-07T09:02:46;7.15;;;2.28;;
70505;SDS011;58032;49.820;6.274;2023-05-07T09:05:13;3.72;;;1.73;;
70505;SDS011;58032;49.820;6.274;2023-05-07T09:07:40;3.57;;;1.87;;
70505;SDS011;58032;49.820;6.274;2023-05-07T09:10:08;5.32;;;1.90;;
70505;SDS011;58032;49.820;6.274;2023-05-07T09:12:37;3.78;;;2.10;;
70505;SDS011;58032;49.820;6.274;2023-05-07T09:15:07;3.75;;;1.80;;
70505;SDS011;58032;49.820;6.274;2023-05-07T09:17:34;3.90;;;2.00;;
70505;SDS011;58032;49.820;6.274;2023-05-07T09:20:02;3.40;;;1.73;;
70505;SDS011;58032;49.820;6.274;2023-05-07T09:22:32;5.07;;;1.50;;
70505;SDS011;58032;49.820;6.274;2023-05-07T09:25:04;3.35;;;1.70;;
70505;SDS011;58032;49.820;6.274;2023-05-07T09:27:37;4.22;;;1.88;;
70505;SDS011;58032;49.820;6.274;2023-05-07T09:30:06;4.50;;;2.10;;
70505;SDS011;58032;49.820;6.274;2023-05-07T09:32:38;3.30;;;2.13;;
70505;SDS011;58032;49.820;6.274;2023-05-07T09:35:16;4.20;;;2.25;;
70505;SDS011;58032;49.820;6.274;2023-05-07T09:37:49;4.18;;;2.08;;
70505;SDS011;58032;49.820;6.274;2023-05-07T09:40:21;4.97;;;2.35;;
70505;SDS011;58032;49.820;6.274;2023-05-07T09:42:50;4.93;;;2.38;;
70505;SDS011;58032;49.820;6.274;2023-05-07T09:45:24;4.97;;;2.00;;
70505;SDS011;58032;49.820;6.274;2023-05-07T09:47:54;4.20;;;2.13;;
70505;SDS011;58032;49.820;6.274;2023-05-07T09:50:27;3.80;;;2.50;;
70505;SDS011;58032;49.820;6.274;2023-05-07T09:52:56;3.60;;;1.80;;
70505;SDS011;58032;49.820;6.274;2023-05-07T09:55:24;3.03;;;1.60;;
70505;SDS011;58032;49.820;6.274;2023-05-07T09:57:52;3.83;;;2.10;;
70505;SDS011;58032;49.820;6.274;2023-05-07T10:00:20;3.60;;;1.67;;
70505;SDS011;58032;49.820;6.274;2023-05-07T10:02:53;3.60;;;1.70;;
70505;SDS011;58032;49.820;6.274;2023-05-07T10:05:32;3.95;;;1.80;;
70505;SDS011;58032;49.820;6.274;2023-05-07T10:08:01;3.63;;;2.10;;
70505;SDS011;58032;49.820;6.274;2023-05-07T10:10:29;3.73;;;1.97;;
70505;SDS011;58032;49.820;6.274;2023-05-07T10:12:59;5.38;;;2.28;;
70505;SDS011;58032;49.820;6.274;2023-05-07T10:15:32;3.10;;;1.92;;
70505;SDS011;58032;49.820;6.274;2023-05-07T10:18:01;4.75;;;2.03;;
70505;SDS011;58032;49.820;6.274;2023-05-07T10:20:33;4.90;;;2.08;;
70505;SDS011;58032;49.820;6.274;2023-05-07T10:23:02;4.17;;;2.17;;
70505;SDS011;58032;49.820;6.274;2023-05-07T10:25:37;3.45;;;2.00;;
70505;SDS011;58032;49.820;6.274;2023-05-07T10:28:11;5.18;;;2.17;;
70505;SDS011;58032;49.820;6.274;2023-05-07T10:33:40;5.07;;;2.10;;
70505;SDS011;58032;49.820;6.274;2023-05-07T10:36:09;5.00;;;1.80;;
70505;SDS011;58032;49.820;6.274;2023-05-07T10:38:36;3.90;;;2.10;;
70505;SDS011;58032;49.820;6.274;2023-05-07T10:41:04;4.00;;;1.90;;
70505;SDS011;58032;49.820;6.274;2023-05-07T10:43:41;3.72;;;1.88;;
70505;SDS011;58032;49.820;6.274;2023-05-07T10:46:18;5.90;;;2.05;;
70505;SDS011;58032;49.820;6.274;2023-05-07T10:51:37;4.28;;;2.20;;
70505;SDS011;58032;49.820;6.274;2023-05-07T10:56:51;3.22;;;2.20;;
70505;SDS011;58032;49.820;6.274;2023-05-07T10:59:33;2.92;;;1.73;;
70505;SDS011;58032;49.820;6.274;2023-05-07T11:05:33;4.50;;;2.10;;
70505;SDS011;58032;49.820;6.274;2023-05-07T11:08:12;4.15;;;1.80;;
70505;SDS011;58032;49.820;6.274;2023-05-07T11:10:55;3.90;;;1.55;;
70505;SDS011;58032;49.820;6.274;2023-05-07T11:13:47;3.58;;;1.50;;
70505;SDS011;58032;49.820;6.274;2023-05-07T11:16:44;2.90;;;1.40;;
70505;SDS011;58032;49.820;6.274;2023-05-07T11:20:13;3.22;;;1.55;;
70505;SDS011;58032;49.820;6.274;2023-05-07T11:25:08;3.33;;;1.70;;
70505;SDS011;58032;49.820;6.274;2023-05-07T11:27:36;4.78;;;1.60;;
70505;SDS011;58032;49.820;6.274;2023-05-07T11:30:03;2.40;;;1.20;;
70505;SDS011;58032;49.820;6.274;2023-05-07T11:32:31;4.35;;;1.30;;
70505;SDS011;58032;49.820;6.274;2023-05-07T11:35:00;3.95;;;1.90;;
70505;SDS011;58032;49.820;6.274;2023-05-07T11:37:27;4.20;;;1.60;;
70505;SDS011;58032;49.820;6.274;2023-05-07T11:42:33;3.07;;;1.70;;
70505;SDS011;58032;49.820;6.274;2023-05-07T11:45:02;3.10;;;1.50;;
70505;SDS011;58032;49.820;6.274;2023-05-07T11:47:30;2.80;;;1.55;;
70505;SDS011;58032;49.820;6.274;2023-05-07T11:50:02;2.53;;;1.27;;
70505;SDS011;58032;49.820;6.274;2023-05-07T11:52:30;2.95;;;1.50;;
70505;SDS011;58032;49.820;6.274;2023-05-07T11:54:58;3.43;;;1.50;;
70505;SDS011;58032;49.820;6.274;2023-05-07T11:57:30;3.75;;;1.60;;
70505;SDS011;58032;49.820;6.274;2023-05-07T11:59:59;4.25;;;1.40;;
70505;SDS011;58032;49.820;6.274;2023-05-07T12:02:38;3.80;;;1.70;;
70505;SDS011;58032;49.820;6.274;2023-05-07T12:05:05;6.55;;;2.00;;
70505;SDS011;58032;49.820;6.274;2023-05-07T12:07:33;2.83;;;1.40;;
70505;SDS011;58032;49.820;6.274;2023-05-07T12:10:04;2.97;;;1.58;;
70505;SDS011;58032;49.820;6.274;2023-05-07T12:12:37;3.72;;;1.50;;
70505;SDS011;58032;49.820;6.274;2023-05-07T12:15:06;4.60;;;1.80;;
70505;SDS011;58032;49.820;6.274;2023-05-07T12:17:33;3.47;;;2.60;;
70505;SDS011;58032;49.820;6.274;2023-05-07T12:20:01;3.23;;;1.43;;
70505;SDS011;58032;49.820;6.274;2023-05-07T12:22:28;4.10;;;1.40;;
70505;SDS011;58032;49.820;6.274;2023-05-07T12:24:58;2.78;;;1.52;;
70505;SDS011;58032;49.820;6.274;2023-05-07T12:27:26;3.10;;;1.42;;
70505;SDS011;58032;49.820;6.274;2023-05-07T12:29:53;3.05;;;2.00;;
70505;SDS011;58032;49.820;6.274;2023-05-07T12:32:20;3.37;;;2.00;;
70505;SDS011;58032;49.820;6.274;2023-05-07T12:34:51;3.50;;;1.60;;
70505;SDS011;58032;49.820;6.274;2023-05-07T12:37:24;4.07;;;1.90;;
70505;SDS011;58032;49.820;6.274;2023-05-07T12:40:08;5.67;;;2.00;;
70505;SDS011;58032;49.820;6.274;2023-05-07T12:42:37;3.42;;;2.17;;
70505;SDS011;58032;49.820;6.274;2023-05-07T12:45:11;3.38;;;2.03;;
70505;SDS011;58032;49.820;6.274;2023-05-07T12:47:39;4.25;;;2.45;;
70505;SDS011;58032;49.820;6.274;2023-05-07T12:50:12;5.13;;;2.60;;
70505;SDS011;58032;49.820;6.274;2023-05-07T12:52:40;5.37;;;2.30;;
70505;SDS011;58032;49.820;6.274;2023-05-07T12:55:07;5.32;;;2.33;;
70505;SDS011;58032;49.820;6.274;2023-05-07T12:57:42;3.83;;;2.10;;
70505;SDS011;58032;49.820;6.274;2023-05-07T13:00:10;3.50;;;1.88;;
70505;SDS011;58032;49.820;6.274;2023-05-07T13:02:38;3.30;;;1.38;;
70505;SDS011;58032;49.820;6.274;2023-05-07T13:05:06;4.17;;;1.27;;
70505;SDS011;58032;49.820;6.274;2023-05-07T13:07:33;3.60;;;1.50;;
70505;SDS011;58032;49.820;6.274;2023-05-07T13:10:01;2.60;;;1.30;;
70505;SDS011;58032;49.820;6.274;2023-05-07T13:12:27;4.25;;;1.70;;
70505;SDS011;58032;49.820;6.274;2023-05-07T13:14:54;2.60;;;1.40;;
70505;SDS011;58032;49.820;6.274;2023-05-07T13:17:21;2.57;;;1.30;;
70505;SDS011;58032;49.820;6.274;2023-05-07T13:19:48;3.05;;;1.52;;
70505;SDS011;58032;49.820;6.274;2023-05-07T13:22:16;3.47;;;1.40;;
70505;SDS011;58032;49.820;6.274;2023-05-07T13:24:43;2.70;;;1.20;;
70505;SDS011;58032;49.820;6.274;2023-05-07T13:27:10;3.08;;;1.20;;
70505;SDS011;58032;49.820;6.274;2023-05-07T13:29:37;2.70;;;1.30;;
70505;SDS011;58032;49.820;6.274;2023-05-07T13:32:05;3.25;;;1.35;;
70505;SDS011;58032;49.820;6.274;2023-05-07T13:34:31;3.55;;;1.40;;
70505;SDS011;58032;49.820;6.274;2023-05-07T13:36:58;2.90;;;1.50;;
70505;SDS011;58032;49.820;6.274;2023-05-07T13:39:25;2.60;;;1.35;;
70505;SDS011;58032;49.820;6.274;2023-05-07T13:41:52;2.97;;;1.50;;
70505;SDS011;58032;49.820;6.274;2023-05-07T13:44:19;3.30;;;1.30;;
70505;SDS011;58032;49.820;6.274;2023-05-07T13:46:46;2.60;;;1.50;;
70505;SDS011;58032;49.820;6.274;2023-05-07T13:49:13;2.75;;;1.50;;
70505;SDS011;58032;49.820;6.274;2023-05-07T13:51:40;3.65;;;1.48;;
70505;SDS011;58032;49.820;6.274;2023-05-07T13:54:06;4.43;;;1.43;;
70505;SDS011;58032;49.820;6.274;2023-05-07T13:56:33;2.53;;;1.20;;
70505;SDS011;58032;49.820;6.274;2023-05-07T13:59:00;3.17;;;1.80;;
70505;SDS011;58032;49.820;6.274;2023-05-07T14:01:27;4.55;;;1.80;;
70505;SDS011;58032;49.820;6.274;2023-05-07T14:03:55;3.05;;;1.55;;
70505;SDS011;58032;49.820;6.274;2023-05-07T14:06:24;5.83;;;1.53;;
70505;SDS011;58032;49.820;6.274;2023-05-07T14:08:51;4.45;;;1.52;;
70505;SDS011;58032;49.820;6.274;2023-05-07T14:11:18;5.22;;;1.80;;
70505;SDS011;58032;49.820;6.274;2023-05-07T14:13:45;2.83;;;1.60;;
70505;SDS011;58032;49.820;6.274;2023-05-07T14:16:12;2.72;;;1.50;;
70505;SDS011;58032;49.820;6.274;2023-05-07T14:18:38;2.87;;;1.20;;
70505;SDS011;58032;49.820;6.274;2023-05-07T14:21:05;2.40;;;1.20;;
70505;SDS011;58032;49.820;6.274;2023-05-07T14:23:36;3.40;;;1.20;;
70505;SDS011;58032;49.820;6.274;2023-05-07T14:26:03;2.70;;;1.20;;
70505;SDS011;58032;49.820;6.274;2023-05-07T14:28:30;2.75;;;1.50;;
70505;SDS011;58032;49.820;6.274;2023-05-07T14:30:57;3.97;;;1.70;;
70505;SDS011;58032;49.820;6.274;2023-05-07T14:33:24;4.93;;;1.60;;
70505;SDS011;58032;49.820;6.274;2023-05-07T14:35:51;3.10;;;1.80;;
70505;SDS011;58032;49.820;6.274;2023-05-07T14:38:19;4.45;;;2.10;;
70505;SDS011;58032;49.820;6.274;2023-05-07T14:40:46;2.92;;;1.55;;
70505;SDS011;58032;49.820;6.274;2023-05-07T14:43:12;4.53;;;1.80;;
70505;SDS011;58032;49.820;6.274;2023-05-07T14:45:39;3.30;;;1.95;;
70505;SDS011;58032;49.820;6.274;2023-05-07T14:48:06;3.92;;;1.77;;
70505;SDS011;58032;49.820;6.274;2023-05-07T14:50:35;3.38;;;1.63;;
70505;SDS011;58032;49.820;6.274;2023-05-07T14:53:02;3.60;;;1.70;;
70505;SDS011;58032;49.820;6.274;2023-05-07T14:55:30;3.43;;;1.60;;
70505;SDS011;58032;49.820;6.274;2023-05-07T14:57:58;4.88;;;1.52;;
70505;SDS011;58032;49.820;6.274;2023-05-07T15:00:25;3.42;;;1.80;;
70505;SDS011;58032;49.820;6.274;2023-05-07T15:02:52;4.03;;;1.70;;
70505;SDS011;58032;49.820;6.274;2023-05-07T15:05:18;3.45;;;1.75;;
70505;SDS011;58032;49.820;6.274;2023-05-07T15:07:47;5.13;;;1.70;;
70505;SDS011;58032;49.820;6.274;2023-05-07T15:10:13;4.28;;;1.70;;
70505;SDS011;58032;49.820;6.274;2023-05-07T15:12:40;4.88;;;1.98;;
70505;SDS011;58032;49.820;6.274;2023-05-07T15:15:07;2.95;;;1.70;;